Time;durP1;ratioP1;P1;durP2;ratioP2;P2;SDS_P1;SDS_P2;PMS_P1;PMS_P2;Temp;Humidity;BMP_temperature;BMP_pressure;BME280_temperature;BME280_humidity;BME280_pressure;Samples;Min_cycle;Max_cycle;Signal;HPM_P1;HPM_P2
2021/10/22 00:02:20;;;;;;;8.57;1.48;;;;;;;6.91;75.24;100085.31;5047214;28;20045;-79
2021/10/22 00:04:45;;;;;;;12.52;1.35;;;;;;;6.92;75.30;100089.72;5043444;28;20041;-80
2021/10/22 00:07:11;;;;;;;8.52;2.20;;;;;;;6.88;75.46;100095.81;5046469;28;20041;-80
2021/10/22 00:09:36;;;;;;;9.85;1.73;;;;;;;6.88;75.40;100094.06;5045214;28;20056;-79
2021/10/22 00:12:02;;;;;;;8.88;1.92;;;;;;;6.79;75.45;100096.69;5046283;28;20044;-79
2021/10/22 00:14:28;;;;;;;7.57;1.20;;;;;;;6.73;76.37;100087.06;5044119;28;20037;-80
2021/10/22 00:16:54;;;;;;;10.93;1.90;;;;;;;6.75;75.98;100089.66;5045204;28;20043;-79
2021/10/22 00:19:19;;;;;;;8.13;1.80;;;;;;;6.73;75.88;100099.25;5044492;28;20045;-80
2021/10/22 00:21:45;;;;;;;8.73;1.40;;;;;;;6.76;75.56;100099.31;5043716;28;20040;-78
2021/10/22 00:24:10;;;;;;;11.85;1.88;;;;;;;6.82;75.14;100104.56;5046659;28;20040;-81
2021/10/22 00:26:36;;;;;;;9.85;1.67;;;;;;;6.73;76.06;100104.50;5043819;28;20026;-80
2021/10/22 00:29:02;;;;;;;11.38;1.98;;;;;;;6.71;75.73;100108.91;5047059;28;20041;-79
2021/10/22 00:31:28;;;;;;;11.90;1.92;;;;;;;6.73;76.18;100104.50;5039790;28;20083;-79
2021/10/22 00:33:53;;;;;;;7.57;1.95;;;;;;;6.67;75.84;100115.88;5045341;28;20076;-78
2021/10/22 00:36:19;;;;;;;10.98;1.63;;;;;;;6.64;76.02;100130.72;5051342;28;20457;-79
2021/10/22 00:38:45;;;;;;;10.65;2.58;;;;;;;6.70;76.16;100121.13;5049583;28;20033;-78
2021/10/22 00:41:11;;;;;;;12.45;1.50;;;;;;;6.69;75.54;100123.75;5043705;28;20037;-79
2021/10/22 00:43:37;;;;;;;14.88;2.47;;;;;;;6.65;75.48;100116.72;5033627;28;20043;-80
2021/10/22 00:46:03;;;;;;;12.13;1.95;;;;;;;6.71;75.00;100137.75;5045479;28;20120;-79
2021/10/22 00:48:28;;;;;;;13.52;1.73;;;;;;;6.71;74.89;100132.50;5044278;28;20032;-80
2021/10/22 00:50:57;;;;;;;12.25;1.83;;;;;;;6.67;75.23;100142.09;5046656;28;20033;-79
2021/10/22 00:53:23;;;;;;;15.65;1.88;;;;;;;6.62;74.58;100132.47;5041005;28;20045;-79
2021/10/22 00:55:49;;;;;;;14.15;1.95;;;;;;;6.68;74.68;100142.97;5044967;28;20391;-79
2021/10/22 00:58:14;;;;;;;9.65;1.75;;;;;;;6.62;74.97;100132.47;5042555;28;20033;-80
2021/10/22 01:00:40;;;;;;;13.02;2.58;;;;;;;6.58;74.74;100128.97;5045593;28;20037;-79
2021/10/22 01:03:05;;;;;;;11.32;2.45;;;;;;;6.62;74.94;100127.22;5040897;28;20037;-78
2021/10/22 01:05:32;;;;;;;11.00;1.85;;;;;;;6.59;75.05;100128.94;5044740;28;20047;-80
2021/10/22 01:07:58;;;;;;;12.07;2.25;;;;;;;6.55;75.01;100121.97;5041344;28;20041;-79
2021/10/22 01:10:23;;;;;;;9.25;1.88;;;;;;;6.55;74.92;100127.19;5045633;28;20032;-80
2021/10/22 01:12:49;;;;;;;17.88;2.78;;;;;;;6.49;75.08;100127.16;5035757;28;20060;-79
2021/10/22 01:15:14;;;;;;;13.27;1.85;;;;;;;6.37;75.68;100124.50;5025953;28;20040;-80
2021/10/22 01:17:43;;;;;;;12.50;2.17;;;;;;;6.42;75.85;100133.28;5047902;28;20041;-79
2021/10/22 01:20:12;;;;;;;11.85;2.08;;;;;;;6.42;75.33;100125.41;5041540;28;20033;-80
2021/10/22 01:22:38;;;;;;;10.73;1.83;;;;;;;6.42;75.54;100137.59;5046610;28;20087;-80
2021/10/22 01:25:09;;;;;;;14.75;2.22;;;;;;;6.49;75.23;100127.16;5044326;28;20484;-79
2021/10/22 01:27:35;;;;;;;10.38;1.63;;;;;;;6.40;75.69;100135.00;5044327;28;20808;-80
2021/10/22 01:30:05;;;;;;;14.07;1.90;;;;;;;6.40;75.73;100137.63;5046259;28;20041;-80
2021/10/22 01:32:31;;;;;;;10.65;1.65;;;;;;;6.35;75.65;100149.81;5044168;28;20036;-80
2021/10/22 01:34:57;;;;;;;14.48;2.60;;;;;;;6.31;75.53;100145.44;5044753;28;20038;-80
2021/10/22 01:37:22;;;;;;;12.88;2.00;;;;;;;6.26;75.85;100149.75;5043291;28;20040;-79
2021/10/22 01:39:47;;;;;;;8.98;1.92;;;;;;;6.25;75.99;100145.41;5044089;28;20068;-81
2021/10/22 01:42:13;;;;;;;13.23;2.22;;;;;;;6.19;76.28;100158.50;5045794;28;20483;-80
2021/10/22 01:44:38;;;;;;;14.80;2.78;;;;;;;6.15;76.29;100158.44;5043906;28;20146;-81
2021/10/22 01:47:03;;;;;;;13.02;1.80;;;;;;;6.08;76.52;100146.19;5045269;28;20060;-81
2021/10/22 01:49:29;;;;;;;11.57;1.90;;;;;;;6.06;76.73;100147.94;5045512;28;20029;-81
2021/10/22 01:51:54;;;;;;;8.73;1.73;;;;;;;6.03;77.32;100158.38;5041857;28;20080;-81
2021/10/22 01:54:19;;;;;;;12.02;2.30;;;;;;;6.07;76.97;100165.38;5046353;28;20025;-81
2021/10/22 01:56:45;;;;;;;10.82;1.95;;;;;;;6.05;77.54;100172.38;5042472;28;20037;-80
2021/10/22 01:59:10;;;;;;;14.38;1.92;;;;;;;6.04;77.11;100170.59;5046260;28;20040;-81
2021/10/22 02:01:35;;;;;;;13.07;1.95;;;;;;;6.01;77.26;100170.59;5043851;28;20068;-81
2021/10/22 02:04:01;;;;;;;13.10;2.00;;;;;;;6.01;77.55;100173.22;5044459;28;20037;-80
2021/10/22 02:06:26;;;;;;;10.85;2.03;;;;;;;5.97;77.76;100175.78;5036460;28;20039;-80
2021/10/22 02:08:53;;;;;;;14.20;1.95;;;;;;;6.02;77.68;100177.56;5030878;28;20512;-81
2021/10/22 02:11:18;;;;;;;12.45;2.08;;;;;;;6.03;77.58;100179.34;5031465;28;20033;-81
2021/10/22 02:13:45;;;;;;;12.35;2.17;;;;;;;6.04;77.56;100180.22;5028790;28;20582;-80
2021/10/22 02:16:10;;;;;;;14.27;1.95;;;;;;;6.02;77.88;100177.56;5037356;28;20041;-80
2021/10/22 02:18:36;;;;;;;16.15;2.45;;;;;;;6.05;77.72;100177.63;5044275;28;20044;-80
2021/10/22 02:21:01;;;;;;;18.95;2.25;;;;;;;5.96;78.41;100182.78;5053151;28;20036;-80
2021/10/22 02:23:26;;;;;;;11.65;1.80;;;;;;;6.04;77.66;100183.72;5041436;28;20064;-80
2021/10/22 02:25:52;;;;;;;10.52;1.98;;;;;;;6.05;77.69;100187.19;5046451;28;20040;-80
2021/10/22 02:28:17;;;;;;;11.80;1.75;;;;;;;6.04;77.93;100177.59;5047116;28;20038;-79
2021/10/22 02:30:43;;;;;;;9.70;2.03;;;;;;;6.06;77.85;100181.97;5048340;28;20037;-79
2021/10/22 02:33:10;;;;;;;11.23;1.92;;;;;;;6.08;77.77;100182.00;5029478;28;20029;-79
2021/10/22 02:35:36;;;;;;;10.45;2.17;;;;;;;6.08;77.78;100187.25;5030443;28;20136;-79
2021/10/22 02:38:01;;;;;;;8.70;1.85;;;;;;;6.06;77.45;100187.22;5045890;28;20104;-78
2021/10/22 02:40:27;;;;;;;11.95;2.05;;;;;;;6.06;77.46;100194.22;5029179;28;20396;-79
2021/10/22 02:42:53;;;;;;;15.02;2.25;;;;;;;6.06;77.33;100192.47;5047935;28;20037;-79
2021/10/22 02:45:18;;;;;;;10.82;2.25;;;;;;;6.05;77.41;100189.81;5046337;28;20037;-79
2021/10/22 02:47:43;;;;;;;12.57;2.17;;;;;;;6.07;77.40;100191.59;5044217;28;20032;-79
2021/10/22 02:50:09;;;;;;;16.50;2.72;;;;;;;6.07;77.37;100194.19;5049341;28;20470;-79
2021/10/22 02:52:35;;;;;;;12.50;2.30;;;;;;;6.06;77.36;100195.09;5028012;28;20037;-80
2021/10/22 02:55:00;;;;;;;13.02;2.10;;;;;;;6.11;77.23;100193.38;5048772;28;20506;-79
2021/10/22 02:57:26;;;;;;;12.40;1.55;;;;;;;6.11;77.22;100187.25;5046161;28;20029;-79
2021/10/22 02:59:51;;;;;;;8.57;1.80;;;;;;;6.07;77.58;100194.19;5047002;28;20063;-79
2021/10/22 03:02:17;;;;;;;11.57;1.88;;;;;;;6.15;76.97;100194.25;5046306;28;20043;-79
2021/10/22 03:04:43;;;;;;;10.50;1.40;;;;;;;6.19;77.08;100195.16;5047493;28;20037;-80
2021/10/22 03:07:08;;;;;;;15.90;1.88;;;;;;;6.15;76.81;100199.50;5042276;28;20059;-78
2021/10/22 03:09:35;;;;;;;15.52;3.30;;;;;;;6.14;76.85;100193.38;5044299;28;20053;-80
2021/10/22 03:12:00;;;;;;;13.77;2.67;;;;;;;6.20;76.73;100191.66;5047253;28;20044;-80
2021/10/22 03:14:26;;;;;;;15.07;2.25;;;;;;;6.18;76.51;100201.25;5044775;28;20045;-80
2021/10/22 03:16:51;;;;;;;11.68;1.60;;;;;;;6.24;76.54;100194.31;5042657;28;20036;-80
2021/10/22 03:19:16;;;;;;;10.10;1.70;;;;;;;6.25;76.29;100192.56;5045433;28;20041;-79
2021/10/22 03:21:42;;;;;;;13.52;2.65;;;;;;;6.26;76.41;100197.84;5048950;28;20059;-80
2021/10/22 03:24:07;;;;;;;14.48;3.08;;;;;;;6.25;76.35;100203.06;5039289;28;20037;-80
2021/10/22 03:26:32;;;;;;;15.55;2.13;;;;;;;6.22;76.44;100209.16;5048285;28;20423;-79
2021/10/22 03:28:58;;;;;;;10.38;1.77;;;;;;;6.15;76.33;100210.84;5044756;28;20064;-80
2021/10/22 03:31:24;;;;;;;10.10;1.73;;;;;;;6.04;77.17;100212.53;5046155;28;20096;-79
2021/10/22 03:33:50;;;;;;;8.82;1.67;;;;;;;6.02;77.09;100219.50;5046558;28;20040;-80
2021/10/22 03:36:15;;;;;;;10.27;2.03;;;;;;;6.06;77.07;100216.03;5045800;28;20450;-80
2021/10/22 03:38:41;;;;;;;12.63;2.45;;;;;;;6.01;77.50;100217.75;5044719;28;20032;-79
2021/10/22 03:41:08;;;;;;;11.88;1.88;;;;;;;6.02;77.33;100224.72;5028200;28;20040;-80
2021/10/22 03:43:35;;;;;;;12.02;1.77;;;;;;;5.95;77.51;100224.66;5047102;28;20124;-80
2021/10/22 03:46:02;;;;;;;13.55;1.88;;;;;;;5.96;77.58;100224.69;5046003;28;20079;-79
2021/10/22 03:48:27;;;;;;;9.57;2.13;;;;;;;5.96;77.73;100234.31;5046372;28;20033;-78
2021/10/22 03:50:53;;;;;;;11.40;1.98;;;;;;;6.02;77.42;100235.22;5025284;28;20060;-79
2021/10/22 03:53:18;;;;;;;15.93;2.92;;;;;;;6.00;77.21;100236.97;5038220;28;20044;-79
2021/10/22 03:55:43;;;;;;;16.38;2.08;;;;;;;6.00;77.31;100249.16;5048405;28;20471;-80
2021/10/22 03:58:09;;;;;;;12.77;2.03;;;;;;;5.92;77.61;100239.50;5043621;28;20578;-80
2021/10/22 04:00:34;;;;;;;17.35;2.63;;;;;;;5.90;77.98;100235.97;5047703;28;20726;-80
2021/10/22 04:03:00;;;;;;;11.80;2.22;;;;;;;5.91;77.47;100236.84;5044839;28;20038;-81
2021/10/22 04:05:25;;;;;;;10.88;1.88;;;;;;;5.93;77.86;100237.75;5046295;28;20063;-80
2021/10/22 04:07:50;;;;;;;15.00;2.47;;;;;;;5.87;77.77;100237.69;5045632;28;20029;-80
2021/10/22 04:10:16;;;;;;;13.93;2.17;;;;;;;5.85;77.93;100242.03;5045594;28;20033;-79
2021/10/22 04:12:43;;;;;;;11.18;2.63;;;;;;;5.82;78.28;100235.03;5045096;28;20032;-80
2021/10/22 04:15:08;;;;;;;12.07;2.50;;;;;;;5.80;77.98;100228.91;5043538;28;20036;-81
2021/10/22 04:17:36;;;;;;;16.08;1.88;;;;;;;5.77;78.34;100241.09;5042736;28;20041;-79
2021/10/22 04:20:02;;;;;;;11.93;2.00;;;;;;;5.75;78.06;100230.59;5042883;28;20415;-79
2021/10/22 04:22:27;;;;;;;12.45;2.55;;;;;;;5.74;78.09;100230.56;5047852;28;20132;-80
2021/10/22 04:24:52;;;;;;;10.00;1.73;;;;;;;5.63;79.05;100234.00;5042765;28;20048;-79
2021/10/22 04:27:18;;;;;;;8.25;1.88;;;;;;;5.68;78.76;100234.91;5042524;28;20046;-77
2021/10/22 04:29:43;;;;;;;14.20;2.63;;;;;;;5.67;78.83;100233.16;5048385;28;20032;-79
2021/10/22 04:32:08;;;;;;;17.88;4.00;;;;;;;5.66;78.84;100228.78;5042819;28;20040;-79
2021/10/22 04:34:34;;;;;;;10.38;1.88;;;;;;;5.66;79.21;100231.41;5033044;28;20036;-77
2021/10/22 04:37:22;;;;;;;12.80;2.40;;;;;;;5.62;78.80;100224.38;5040766;28;20071;-80
2021/10/22 04:42:40;;;;;;;10.68;2.20;;;;;;;5.57;78.93;100241.78;5046002;28;20048;-79
2021/10/22 04:45:10;;;;;;;14.18;2.35;;;;;;;5.57;79.23;100241.78;5036145;28;20134;-79
2021/10/22 04:47:36;;;;;;;11.93;3.28;;;;;;;5.54;79.21;100241.75;5035341;28;20083;-80
2021/10/22 04:50:03;;;;;;;16.73;3.40;;;;;;;5.55;79.15;100238.25;5033756;28;20054;-79
2021/10/22 04:52:29;;;;;;;14.43;2.97;;;;;;;5.54;79.12;100246.13;5035381;28;20072;-79
2021/10/22 04:54:54;;;;;;;14.52;2.08;;;;;;;5.48;79.75;100241.72;5017496;28;20037;-80
2021/10/22 04:57:19;;;;;;;16.20;3.72;;;;;;;5.47;79.81;100247.78;5048457;28;20052;-80
2021/10/22 04:59:45;;;;;;;9.85;2.00;;;;;;;5.47;79.71;100239.94;5053475;28;20117;-80
2021/10/22 05:02:10;;;;;;;10.50;2.08;;;;;;;5.46;79.27;100238.19;5048776;28;20083;-80
2021/10/22 05:04:35;;;;;;;10.73;2.35;;;;;;;5.42;79.52;100242.53;5050558;28;20033;-80
2021/10/22 05:07:00;;;;;;;13.13;2.47;;;;;;;5.41;79.53;100239.88;5048472;28;20040;-79
2021/10/22 05:09:26;;;;;;;11.90;1.92;;;;;;;5.42;79.71;100239.00;5048006;28;20037;-80
2021/10/22 05:11:51;;;;;;;14.80;2.40;;;;;;;5.39;79.84;100245.09;5039037;28;20029;-80
2021/10/22 05:14:16;;;;;;;11.27;2.63;;;;;;;5.40;79.90;100243.38;5043907;28;20403;-80
2021/10/22 05:16:42;;;;;;;16.63;3.20;;;;;;;5.38;79.99;100234.63;5047228;28;20064;-80
2021/10/22 05:19:07;;;;;;;18.17;3.00;;;;;;;5.36;79.76;100242.44;5042957;28;20056;-80
2021/10/22 05:21:32;;;;;;;13.45;2.65;;;;;;;5.35;79.90;100243.31;5041197;28;20040;-80
2021/10/22 05:23:58;;;;;;;17.55;3.75;;;;;;;5.34;79.84;100248.53;5053536;28;20410;-80
2021/10/22 05:26:23;;;;;;;11.57;3.08;;;;;;;5.30;80.14;100246.75;5043674;28;20514;-79
2021/10/22 05:28:48;;;;;;;15.63;3.28;;;;;;;5.25;80.14;100242.34;5045439;28;20052;-80
2021/10/22 05:31:14;;;;;;;10.05;2.72;;;;;;;5.20;80.43;100236.19;5041388;28;20116;-80
2021/10/22 05:33:39;;;;;;;12.95;2.80;;;;;;;5.17;80.77;100258.81;5039799;28;20060;-79
2021/10/22 05:36:04;;;;;;;12.77;2.20;;;;;;;5.17;80.45;100251.84;5045047;28;20095;-80
2021/10/22 05:38:30;;;;;;;12.73;2.38;;;;;;;5.18;80.24;100248.34;5043556;28;20037;-80
2021/10/22 05:40:56;;;;;;;11.43;1.92;;;;;;;5.20;80.33;100251.00;5045236;28;20079;-80
2021/10/22 05:43:21;;;;;;;10.82;1.73;;;;;;;5.17;80.75;100257.06;5042944;28;20052;-81
2021/10/22 05:45:46;;;;;;;11.93;2.10;;;;;;;5.15;80.79;100252.69;5045962;28;20618;-80
2021/10/22 05:48:12;;;;;;;11.07;2.42;;;;;;;5.11;80.68;100254.41;5041744;28;20124;-80
2021/10/22 05:50:39;;;;;;;11.63;2.30;;;;;;;5.11;80.84;100257.03;5041791;28;20041;-80
2021/10/22 05:53:04;;;;;;;11.80;2.55;;;;;;;5.16;80.73;100259.66;5045257;28;20045;-80
2021/10/22 05:55:30;;;;;;;12.30;2.05;;;;;;;5.16;80.69;100257.03;5043127;28;20052;-80
2021/10/22 05:57:56;;;;;;;15.13;2.40;;;;;;;5.19;80.15;100262.34;5043851;28;20025;-80
2021/10/22 06:00:21;;;;;;;9.27;2.08;;;;;;;5.18;80.53;100264.06;5041835;28;20101;-80
2021/10/22 06:02:50;;;;;;;10.88;2.10;;;;;;;5.23;80.17;100271.97;5042222;28;20037;-80
2021/10/22 06:05:16;;;;;;;11.07;1.77;;;;;;;5.26;79.79;100272.88;5042035;28;20025;-79
2021/10/22 06:07:41;;;;;;;15.32;2.67;;;;;;;5.23;80.13;100278.06;5043890;28;20079;-80
2021/10/22 06:10:07;;;;;;;10.65;2.38;;;;;;;5.26;80.05;100279.84;5038872;28;20538;-80
2021/10/22 06:12:32;;;;;;;8.27;1.67;;;;;;;5.30;79.88;100278.16;5037076;28;20036;-78
2021/10/22 06:14:57;;;;;;;13.15;3.00;;;;;;;5.37;80.16;100282.56;5031689;28;20029;-80
2021/10/22 06:17:23;;;;;;;12.85;3.00;;;;;;;5.36;80.67;100278.22;5030492;28;20026;-80
2021/10/22 06:19:51;;;;;;;13.95;3.05;;;;;;;5.49;79.84;100287.94;5029725;28;20063;-80
2021/10/22 06:22:36;;;;;;;14.48;3.20;;;;;;;5.55;79.17;100290.63;5042948;28;20069;-79
2021/10/22 06:25:02;;;;;;;12.15;2.25;;;;;;;5.52;78.64;100290.59;5036407;28;20044;-80
2021/10/22 06:27:27;;;;;;;7.18;2.00;;;;;;;5.53;78.99;100304.56;5047226;28;20033;-80
2021/10/22 06:29:53;;;;;;;10.57;2.28;;;;;;;5.59;78.59;100299.41;5042841;28;20041;-80
2021/10/22 06:32:18;;;;;;;7.85;1.63;;;;;;;5.62;78.29;100296.81;5043429;28;20112;-79
2021/10/22 06:34:43;;;;;;;12.98;2.83;;;;;;;5.67;78.25;100297.75;5042400;28;20052;-80
2021/10/22 06:37:09;;;;;;;13.25;2.88;;;;;;;5.75;78.16;100305.66;5028407;28;20040;-80
2021/10/22 06:39:34;;;;;;;9.15;2.97;;;;;;;5.79;77.30;100302.19;5045518;28;20061;-79
2021/10/22 06:42:03;;;;;;;12.55;2.05;;;;;;;5.86;77.28;100310.13;5044861;28;20045;-80
2021/10/22 06:44:29;;;;;;;11.20;2.38;;;;;;;5.91;76.79;100307.56;5042971;28;20124;-79
2021/10/22 06:46:55;;;;;;;9.63;1.88;;;;;;;5.96;77.02;100303.28;5042086;28;20113;-80
2021/10/22 06:49:21;;;;;;;11.20;2.60;;;;;;;5.97;76.87;100305.03;5045500;28;20033;-79
2021/10/22 06:51:47;;;;;;;8.90;2.58;;;;;;;5.97;76.66;100299.78;5023926;28;20121;-80
2021/10/22 06:54:13;;;;;;;15.70;2.97;;;;;;;6.05;76.21;100298.13;5041051;28;20050;-80
2021/10/22 06:56:38;;;;;;;12.98;2.85;;;;;;;6.15;76.05;100299.94;5044016;28;20037;-80
2021/10/22 06:59:03;;;;;;;11.60;2.97;;;;;;;6.19;75.60;100295.63;5041555;28;20090;-80
2021/10/22 07:01:29;;;;;;;13.65;2.63;;;;;;;6.26;75.82;100296.53;5046789;28;20082;-80
2021/10/22 07:03:54;;;;;;;12.00;2.75;;;;;;;6.26;75.54;100288.66;5041660;28;20041;-80
2021/10/22 07:09:03;;;;;;;10.60;2.97;;;;;;;6.46;74.88;100305.41;5020284;28;20141;-80
2021/10/22 07:11:29;;;;;;;10.95;2.33;;;;;;;6.53;74.53;100296.75;5042407;28;20041;-79
2021/10/22 07:13:56;;;;;;;8.15;2.30;;;;;;;6.58;74.31;100292.41;5045448;28;20111;-80
2021/10/22 07:16:23;;;;;;;12.32;2.47;;;;;;;6.64;73.78;100307.28;5047591;28;20525;-79
2021/10/22 07:18:50;;;;;;;9.35;2.38;;;;;;;6.68;74.21;100308.19;5039462;28;20099;-79
2021/10/22 07:21:17;;;;;;;12.60;2.58;;;;;;;6.78;73.39;100304.75;5042616;28;20059;-80
2021/10/22 07:23:44;;;;;;;10.73;2.67;;;;;;;6.84;73.10;100306.50;5046922;28;20069;-80
2021/10/22 07:26:10;;;;;;;8.35;2.25;;;;;;;6.89;72.93;100304.78;5045119;28;20124;-80
2021/10/22 07:28:35;;;;;;;11.05;2.53;;;;;;;6.86;72.80;100297.78;5046561;28;20057;-80
2021/10/22 07:31:01;;;;;;;8.75;2.40;;;;;;;6.99;72.69;100291.72;5047279;28;20040;-80
2021/10/22 07:33:27;;;;;;;10.63;2.53;;;;;;;7.01;71.59;100290.00;5045690;28;20033;-80
2021/10/22 07:35:55;;;;;;;13.55;2.20;;;;;;;7.07;71.83;100288.25;5046658;28;20103;-80
2021/10/22 07:38:20;;;;;;;11.23;2.05;;;;;;;7.09;71.46;100286.53;5039711;28;20033;-80
2021/10/22 07:40:46;;;;;;;11.50;2.03;;;;;;;7.11;71.16;100295.28;5046401;28;20048;-80
2021/10/22 07:43:12;;;;;;;12.63;2.60;;;;;;;7.15;71.55;100273.41;5049391;28;20120;-79
2021/10/22 07:45:38;;;;;;;9.48;2.38;;;;;;;7.23;70.91;100282.19;5044330;28;20036;-80
2021/10/22 07:48:04;;;;;;;12.10;2.30;;;;;;;7.31;70.55;100285.75;5040405;28;20048;-80
2021/10/22 07:50:30;;;;;;;9.77;2.08;;;;;;;7.36;70.59;100284.03;5046459;28;20025;-80
2021/10/22 07:52:55;;;;;;;12.70;2.38;;;;;;;7.41;70.27;100277.03;5044554;28;20565;-80
2021/10/22 07:55:22;;;;;;;10.93;1.98;;;;;;;7.55;70.03;100276.19;5045785;28;20415;-80
2021/10/22 07:57:47;;;;;;;13.40;2.80;;;;;;;7.52;69.90;100279.69;5045145;28;20083;-80
2021/10/22 08:00:13;;;;;;;10.77;2.53;;;;;;;7.71;69.54;100280.59;5044602;28;20037;-80
2021/10/22 08:02:40;;;;;;;10.38;1.85;;;;;;;7.70;69.12;100270.94;5045392;28;20068;-80
2021/10/22 08:05:07;;;;;;;11.30;2.40;;;;;;;7.74;69.29;100267.44;5028254;28;20030;-80
2021/10/22 08:07:37;;;;;;;13.55;2.72;;;;;;;7.79;68.75;100280.59;5046392;28;20033;-80
2021/10/22 08:10:03;;;;;;;9.23;2.50;;;;;;;7.82;68.60;100286.72;5027739;28;20047;-79
2021/10/22 08:12:29;;;;;;;11.65;2.60;;;;;;;7.90;68.18;100274.47;5045724;28;20053;-81
2021/10/22 08:14:54;;;;;;;8.30;2.42;;;;;;;8.03;68.33;100271.84;5043306;28;20481;-79
2021/10/22 08:17:20;;;;;;;9.52;2.15;;;;;;;8.13;68.23;100281.50;5047824;28;20059;-81
2021/10/22 08:20:08;;;;;;;9.30;2.60;;;;;;;8.12;67.63;100279.72;5048693;28;20155;-81
2021/10/22 08:22:34;;;;;;;10.60;2.20;;;;;;;8.24;67.32;100270.97;5047074;28;20090;-80
2021/10/22 08:25:12;;;;;;;10.25;2.03;;;;;;;8.38;66.79;100277.06;5044216;28;20041;-81
2021/10/22 08:27:44;;;;;;;7.43;2.13;;;;;;;8.38;66.01;100276.19;5040969;28;20033;-80
2021/10/22 08:30:16;;;;;;;12.27;2.30;;;;;;;8.40;65.73;100264.84;5046903;28;20037;-79
2021/10/22 08:32:42;;;;;;;14.63;2.47;;;;;;;8.41;65.87;100277.13;5044459;28;20040;-80
2021/10/22 08:35:08;;;;;;;10.95;2.03;;;;;;;8.53;64.69;100263.06;5050973;28;20045;-80
2021/10/22 08:37:36;;;;;;;13.25;2.20;;;;;;;8.59;64.60;100270.94;5026502;28;20037;-80
2021/10/22 08:40:03;;;;;;;13.98;3.47;;;;;;;8.55;64.53;100269.19;5044848;28;20048;-80
2021/10/22 08:42:29;;;;;;;13.73;2.97;;;;;;;8.64;65.81;100271.78;5026753;28;20040;-81
2021/10/22 08:44:55;;;;;;;13.25;3.58;;;;;;;8.65;64.73;100278.81;5046489;28;20037;-81
2021/10/22 08:47:25;;;;;;;11.30;2.80;;;;;;;8.73;64.38;100278.81;5026315;28;20036;-81
2021/10/22 08:49:50;;;;;;;9.68;2.47;;;;;;;8.77;64.41;100278.78;5045380;28;20082;-81
2021/10/22 08:52:16;;;;;;;6.82;1.80;;;;;;;8.85;63.75;100283.16;5043176;28;20439;-81
2021/10/22 08:54:42;;;;;;;11.30;2.28;;;;;;;8.85;62.98;100272.63;5046810;28;20135;-81
2021/10/22 08:57:08;;;;;;;10.05;2.45;;;;;;;8.88;63.07;100265.63;5035314;28;20037;-81
2021/10/22 08:59:34;;;;;;;7.13;1.80;;;;;;;8.94;63.46;100259.44;5046340;28;20376;-81
2021/10/22 09:02:31;;;;;;;6.60;1.92;;;;;;;9.04;62.16;100263.78;5038817;28;20415;-80
2021/10/22 09:05:09;;;;;;;10.23;3.10;;;;;;;9.12;62.34;100251.47;4994160;28;20048;-80
2021/10/22 09:08:05;;;;;;;12.32;2.17;;;;;;;9.33;62.67;100261.03;5040181;28;20053;-80
2021/10/22 09:10:33;;;;;;;8.80;2.20;;;;;;;9.31;60.63;100259.28;5046113;28;20119;-80
2021/10/22 09:13:08;;;;;;;10.35;2.70;;;;;;;9.42;60.42;100260.94;5048267;28;20040;-80
2021/10/22 09:15:40;;;;;;;12.77;2.78;;;;;;;9.45;60.96;100260.06;5043664;28;20045;-80
2021/10/22 09:18:20;;;;;;;9.70;2.55;;;;;;;9.61;59.49;100266.97;5044377;28;20055;-80
2021/10/22 09:20:51;;;;;;;13.05;2.25;;;;;;;9.73;58.98;100265.16;5043471;28;20029;-80
2021/10/22 09:23:27;;;;;;;8.52;2.22;;;;;;;9.76;59.49;100254.59;5049738;28;20423;-80
2021/10/22 09:26:13;;;;;;;9.43;1.88;;;;;;;9.88;59.49;100259.78;5042692;28;20037;-80
2021/10/22 09:28:38;;;;;;;10.32;1.98;;;;;;;9.95;58.88;100276.41;5046148;28;20037;-79
2021/10/22 09:31:09;;;;;;;12.43;2.40;;;;;;;10.06;58.73;100254.38;5045970;28;20120;-80
2021/10/22 09:33:34;;;;;;;6.82;1.80;;;;;;;10.23;57.99;100295.53;5044442;28;20048;-80
2021/10/22 09:36:00;;;;;;;8.85;1.80;;;;;;;10.33;57.52;100267.34;5041614;28;20036;-80
2021/10/22 09:38:29;;;;;;;11.98;2.20;;;;;;;10.50;56.76;100260.13;5043051;28;20041;-80
2021/10/22 09:41:00;;;;;;;11.13;2.40;;;;;;;10.79;56.39;100253.66;5042851;28;20039;-80
2021/10/22 09:43:35;;;;;;;11.48;2.85;;;;;;;11.04;54.32;100255.13;5051446;28;20048;-79
2021/10/22 09:46:21;;;;;;;12.20;2.55;;;;;;;10.88;54.17;100262.34;5046246;28;20040;-80
2021/10/22 09:48:58;;;;;;;9.60;1.90;;;;;;;10.91;52.06;100248.25;5043927;28;20033;-80
2021/10/22 09:51:26;;;;;;;9.80;2.08;;;;;;;11.13;52.60;100248.84;5038495;28;20037;-80
2021/10/22 09:53:52;;;;;;;12.30;4.45;;;;;;;11.37;52.83;100240.59;5046692;28;20045;-80
2021/10/22 09:56:21;;;;;;;11.77;2.58;;;;;;;11.50;51.63;100233.38;5042048;28;20048;-82
2021/10/22 09:59:04;;;;;;;13.05;2.65;;;;;;;11.56;52.13;100250.91;5036682;28;20122;-80
2021/10/22 10:01:33;;;;;;;8.52;2.40;;;;;;;11.91;52.53;100252.16;5047607;28;20040;-81
2021/10/22 10:04:00;;;;;;;8.80;1.70;;;;;;;11.81;50.91;100246.97;5037013;28;20052;-80
2021/10/22 10:06:27;;;;;;;9.68;1.90;;;;;;;11.50;51.68;100254.53;5052215;28;20041;-80
2021/10/22 10:08:52;;;;;;;8.07;2.20;;;;;;;11.28;51.33;100245.13;5052990;28;20094;-80
2021/10/22 10:11:18;;;;;;;8.50;1.70;;;;;;;11.22;51.84;100238.16;5049477;28;20447;-80
2021/10/22 10:13:44;;;;;;;22.20;2.10;;;;;;;11.13;52.67;100244.47;5049926;28;20037;-80
2021/10/22 10:16:09;;;;;;;9.60;2.30;;;;;;;11.23;52.50;100241.69;5045707;28;20085;-79
2021/10/22 10:18:45;;;;;;;11.90;1.95;;;;;;;11.03;52.13;100228.72;5046923;28;20053;-78
2021/10/22 10:21:14;;;;;;;9.02;1.90;;;;;;;11.10;52.47;100230.41;5042834;28;20049;-79
2021/10/22 10:23:44;;;;;;;11.13;2.20;;;;;;;11.10;52.54;100239.19;5041280;28;20124;-80
2021/10/22 10:26:31;;;;;;;14.00;4.47;;;;;;;11.01;52.52;100249.03;5053136;28;20043;-80
2021/10/22 10:29:00;;;;;;;7.00;2.28;;;;;;;10.84;52.63;100241.28;5048863;28;20048;-81
2021/10/22 10:31:31;;;;;;;7.88;2.13;;;;;;;10.93;53.13;100228.84;5051245;28;20049;-80
2021/10/22 10:34:02;;;;;;;13.00;2.17;;;;;;;10.83;53.21;100229.84;5053536;28;20099;-80
2021/10/22 10:36:47;;;;;;;10.20;1.80;;;;;;;10.79;52.33;100225.50;5057065;28;20283;-78
2021/10/22 10:39:13;;;;;;;10.07;2.00;;;;;;;10.87;53.12;100250.06;5045954;28;20037;-78
2021/10/22 10:41:39;;;;;;;10.40;2.05;;;;;;;10.86;52.69;100208.69;5043983;28;20037;-80
2021/10/22 10:44:26;;;;;;;9.57;1.67;;;;;;;10.93;52.81;100228.84;5053692;28;20063;-79
2021/10/22 10:46:51;;;;;;;7.85;2.08;;;;;;;11.35;52.38;100202.75;5031408;28;20105;-79
2021/10/22 10:49:45;;;;;;;8.90;2.47;;;;;;;11.81;50.78;100201.16;5039209;28;20053;-80
2021/10/22 10:52:41;;;;;;;11.68;2.20;;;;;;;11.76;50.62;100210.94;5045359;28;20490;-79
2021/10/22 10:55:12;;;;;;;9.35;1.83;;;;;;;11.56;50.25;100232.41;5044047;28;20038;-81
2021/10/22 10:57:52;;;;;;;10.77;2.28;;;;;;;11.33;50.67;100212.47;5056506;28;20045;-79
2021/10/22 11:00:21;;;;;;;7.90;1.70;;;;;;;11.38;50.42;100215.91;5055091;28;20045;-80
2021/10/22 11:03:02;;;;;;;10.82;2.22;;;;;;;11.52;50.71;100206.91;5054061;28;20037;-79
2021/10/22 11:05:49;;;;;;;6.35;1.42;;;;;;;11.69;49.86;100215.47;5035423;28;20043;-79
2021/10/22 11:08:22;;;;;;;6.40;1.60;;;;;;;11.71;49.85;100208.38;5060312;28;20046;-80
2021/10/22 11:10:55;;;;;;;;;;;;;;;11.60;49.22;100195.31;5060391;28;20032;-79
2021/10/22 11:13:21;;;;;;;3.78;1.20;;;;;;;11.61;50.72;100201.50;5058076;28;19912;-79
2021/10/22 11:15:48;;;;;;;9.30;2.13;;;;;;;11.62;50.65;100209.38;5060111;28;20076;-79
2021/10/22 11:18:13;;;;;;;11.38;2.50;;;;;;;11.45;50.66;100199.97;5053645;28;20049;-80
2021/10/22 11:20:38;;;;;;;9.00;1.95;;;;;;;11.61;50.51;100194.44;5056637;28;20045;-80
2021/10/22 11:23:05;;;;;;;8.13;1.40;;;;;;;11.78;50.68;100191.50;5054909;28;20112;-80
2021/10/22 11:25:31;;;;;;;8.98;1.67;;;;;;;11.84;49.60;100187.88;5040787;28;20032;-78
2021/10/22 11:28:02;;;;;;;9.10;1.85;;;;;;;11.72;49.09;100202.19;5055919;28;20056;-79
2021/10/22 11:30:27;;;;;;;8.13;1.52;;;;;;;11.77;49.75;100200.34;5056573;28;20036;-80
2021/10/22 11:32:54;;;;;;;9.77;1.77;;;;;;;11.75;49.43;100188.06;5052976;28;20037;-79
2021/10/22 11:35:29;;;;;;;11.63;2.42;;;;;;;11.84;49.43;100198.47;5054461;28;20029;-80